Time;durP1;ratioP1;P1;durP2;ratioP2;P2;SDS_P1;SDS_P2;PMS_P1;PMS_P2;Temp;Humidity;BMP_temperature;BMP_pressure;BME280_temperature;BME280_humidity;BME280_pressure;Samples;Min_cycle;Max_cycle;Signal;HPM_P1;HPM_P2
2021/11/02 00:00:38;;;;;;;11.10;8.30;;;;;;;18.82;51.88;100485.28;113578;1219;72463;-85
2021/11/02 00:03:05;;;;;;;12.70;9.00;;;;;;;18.82;51.91;100479.91;113572;1220;71944;-85
2021/11/02 00:06:04;;;;;;;11.90;9.30;;;;;;;18.82;51.98;100473.48;113289;1223;58891;-85
2021/11/02 00:08:30;;;;;;;12.60;8.70;;;;;;;18.82;51.95;100469.34;113251;1223;61336;-84
2021/11/02 00:11:09;;;;;;;;;;;;;;;;;;;;;
2021/11/02 00:13:38;;;;;;;12.50;9.40;;;;;;;18.83;51.85;100455.06;113266;1223;73888;-85
2021/11/02 00:16:07;;;;;;;14.60;9.50;;;;;;;18.82;51.84;100448.69;113293;1223;60760;-84
2021/11/02 00:18:33;;;;;;;12.80;9.20;;;;;;;18.82;51.90;100445.10;113275;1222;59974;-85
2021/11/02 00:21:34;;;;;;;11.60;8.60;;;;;;;18.82;51.94;100438.52;113642;1218;72246;-85
2021/11/02 00:27:41;;;;;;;;;;;;;;;;;;;;;
2021/11/02 00:30:19;;;;;;;11.80;9.20;;;;;;;18.82;51.92;100432.63;114196;1214;59954;-84
2021/11/02 00:32:52;;;;;;;14.30;9.20;;;;;;;18.82;51.88;100429.97;114216;1214;72089;-85
2021/11/02 00:35:56;;;;;;;11.80;9.00;;;;;;;18.81;51.92;100429.30;114103;1216;72601;-84
2021/11/02 00:38:42;;;;;;;11.90;8.70;;;;;;;18.82;52.01;100426.78;114217;1214;60338;-85
2021/11/02 00:41:11;;;;;;;11.00;9.10;;;;;;;18.82;51.93;100422.34;114269;1214;60859;-85
2021/11/02 00:43:42;;;;;;;12.10;8.90;;;;;;;18.82;51.97;100423.73;114240;1212;57226;-85
2021/11/02 00:46:50;;;;;;;13.50;8.70;;;;;;;18.82;51.98;100422.63;114365;1211;72784;-85
2021/11/02 00:49:17;;;;;;;11.60;9.10;;;;;;;18.81;51.96;100420.21;114386;1211;60181;-85
2021/11/02 00:52:20;;;;;;;11.30;8.80;;;;;;;18.82;51.97;100419.83;114319;1211;59237;-85
2021/11/02 00:54:46;;;;;;;11.20;8.80;;;;;;;18.81;51.96;100413.63;114394;1212;72276;-85
2021/11/02 00:57:12;;;;;;;10.70;8.80;;;;;;;18.81;51.98;100408.80;114340;1212;57110;-85
2021/11/02 00:59:39;;;;;;;10.50;8.40;;;;;;;18.82;51.99;100404.69;114339;1211;57243;-85
2021/11/02 01:02:08;;;;;;;11.70;8.80;;;;;;;18.82;51.95;100403.42;114361;1211;57113;-85
2021/11/02 01:05:30;;;;;;;11.60;8.70;;;;;;;18.82;51.96;100401.63;114413;1208;73194;-85
2021/11/02 01:07:58;;;;;;;11.00;8.20;;;;;;;18.81;51.96;100396.16;114556;1208;71324;-85
2021/11/02 01:10:48;;;;;;;12.80;9.10;;;;;;;18.82;51.98;100388.83;114497;1208;60864;-85
2021/11/02 01:13:41;;;;;;;;;;;;;;;;;;;;;
2021/11/02 01:16:50;;;;;;;11.90;8.80;;;;;;;18.80;51.97;100378.92;114516;1209;72542;-84
2021/11/02 01:19:19;;;;;;;11.70;8.80;;;;;;;18.81;52.00;100373.39;114546;1208;73319;-84
2021/11/02 01:21:48;;;;;;;11.50;8.80;;;;;;;18.80;51.99;100369.46;114531;1208;59795;-85
2021/11/02 01:24:21;;;;;;;12.10;9.00;;;;;;;18.81;51.90;100355.90;114539;1209;61216;-85
2021/11/02 01:27:05;;;;;;;10.90;8.10;;;;;;;18.81;51.93;100355.54;114533;1208;73445;-84
2021/11/02 01:29:33;;;;;;;11.50;8.50;;;;;;;18.81;51.94;100358.39;114486;1208;73649;-85
2021/11/02 01:32:09;;;;;;;12.80;9.30;;;;;;;18.81;51.92;100351.27;114509;1208;58075;-84
2021/11/02 01:34:56;;;;;;;13.10;9.10;;;;;;;18.81;51.99;100345.55;114544;1209;60902;-85
2021/11/02 01:37:36;;;;;;;10.90;8.20;;;;;;;18.80;52.00;100338.98;114551;1208;73403;-85
2021/11/02 01:40:30;;;;;;;;;;;;;;;;;;;;;
2021/11/02 01:42:58;;;;;;;11.80;8.90;;;;;;;18.80;52.00;100339.15;114564;1208;60042;-84
2021/11/02 01:45:27;;;;;;;13.40;8.70;;;;;;;18.80;51.96;100338.10;114511;1209;59909;-84
2021/11/02 01:48:32;;;;;;;12.40;9.00;;;;;;;18.80;51.98;100333.48;114487;1208;72354;-86
2021/11/02 01:51:01;;;;;;;11.50;8.60;;;;;;;18.80;52.01;100339.36;114517;1209;74789;-84
2021/11/02 01:53:39;;;;;;;13.40;8.70;;;;;;;18.80;52.03;100338.64;114566;1208;58023;-85
2021/11/02 01:56:34;;;;;;;;;;;;;;;;;;;;;
2021/11/02 01:59:51;;;;;;;11.00;8.60;;;;;;;18.79;52.02;100333.18;114548;1208;72602;-85
2021/11/02 02:02:49;;;;;;;11.60;8.80;;;;;;;18.79;51.96;100329.23;114555;1208;73194;-85
2021/11/02 02:05:35;;;;;;;12.30;8.40;;;;;;;18.79;52.03;100332.30;114450;1210;60011;-85
2021/11/02 02:09:03;;;;;;;11.50;8.20;;;;;;;18.79;52.05;100332.86;114464;1210;58821;-85
2021/11/02 02:12:27;;;;;;;;;;;;;;;;;;;;;
2021/11/02 02:15:30;;;;;;;11.00;8.10;;;;;;;18.77;52.04;100338.29;113940;1216;73565;-85
2021/11/02 02:18:50;;;;;;;;;;;;;;;;;;;;;
2021/11/02 02:22:37;;;;;;;;;;;;;;;;;;;;;
2021/11/02 02:25:40;;;;;;;10.80;8.20;;;;;;;18.76;52.07;100344.42;113953;1216;72526;-85
2021/11/02 02:28:47;;;;;;;11.90;7.70;;;;;;;18.76;52.03;100344.60;113946;1216;74605;-85
2021/11/02 02:31:32;;;;;;;;;;;;;;;;;;;;;
2021/11/02 02:34:29;;;;;;;;;;;;;;;;;;;;;
2021/11/02 02:37:16;;;;;;;9.90;8.00;;;;;;;18.76;52.08;100354.95;113716;1218;73768;-85
2021/11/02 02:39:50;;;;;;;10.40;8.50;;;;;;;18.77;52.10;100355.09;113731;1219;74136;-86
2021/11/02 02:42:29;;;;;;;10.70;8.10;;;;;;;18.77;52.03;100353.67;113810;1217;61011;-85
2021/11/02 02:45:16;;;;;;;11.00;8.20;;;;;;;18.76;52.12;100349.93;113954;1216;59960;-85
2021/11/02 02:48:09;;;;;;;10.00;7.80;;;;;;;18.77;52.18;100350.64;114229;1208;72394;-85
2021/11/02 02:51:04;;;;;;;12.10;8.30;;;;;;;18.77;52.11;100356.88;114615;1208;74876;-85
2021/11/02 02:53:41;;;;;;;11.30;8.10;;;;;;;18.77;52.14;100354.73;114876;1203;60001;-85
2021/11/02 02:56:49;;;;;;;;;;;;;;;;;;;;;
2021/11/02 02:59:47;;;;;;;9.60;7.60;;;;;;;18.76;52.16;100357.27;114600;1206;73531;-86
2021/11/02 03:03:15;;;;;;;11.60;8.30;;;;;;;18.76;52.21;100361.76;114450;1209;73434;-86
2021/11/02 03:05:56;;;;;;;11.80;7.80;;;;;;;18.75;52.26;100368.71;114506;1209;58904;-86
2021/11/02 03:08:36;;;;;;;10.30;7.90;;;;;;;18.76;52.15;100366.55;114505;1209;61176;-85
2021/11/02 03:11:13;;;;;;;10.40;8.10;;;;;;;18.76;52.24;100361.56;114454;1209;72645;-85
2021/11/02 03:13:43;;;;;;;10.60;8.20;;;;;;;18.76;52.14;100349.79;114456;1209;73381;-85
2021/11/02 03:16:14;;;;;;;9.00;7.40;;;;;;;18.76;52.13;100348.17;114462;1209;59921;-85
2021/11/02 03:49:18;;;;;;;9.10;7.10;;;;;;;18.71;52.31;100343.17;114310;1211;73376;-85
2021/11/02 03:57:52;;;;;;;9.60;7.40;;;;;;;18.71;52.37;100329.06;115374;1198;58924;-85
2021/11/02 05:55:09;;;;;;;7.80;5.90;;;;;;;18.66;52.47;100254.76;115016;1197;59842;-85
2021/11/02 05:57:11;;;;;;;;;;;;;;;;;;;;;
2021/11/02 05:59:56;;;;;;;7.60;6.20;;;;;;;18.67;52.45;100257.34;115214;1200;62946;-84
2021/11/02 06:03:22;;;;;;;9.30;6.50;;;;;;;18.67;52.53;100251.80;115204;1198;65257;-84
2021/11/02 06:09:47;;;;;;;7.90;6.10;;;;;;;18.68;52.51;100262.14;115058;1198;57914;-85
2021/11/02 06:47:24;;;;;;;8.70;6.40;;;;;;;18.69;52.58;100254.16;115314;1199;60463;-85
2021/11/02 06:50:42;;;;;;;;;;;;;;;;;;;;;
2021/11/02 07:20:40;;;;;;;;;;;;;;;;;;;;;
2021/11/02 07:26:46;;;;;;;7.40;5.50;;;;;;;18.84;52.36;100213.35;114342;1209;60456;-84
2021/11/02 08:50:51;;;;;;;7.80;5.00;;;;;;;19.68;51.20;100093.85;114840;1203;64991;-84
2021/11/02 08:53:33;;;;;;;7.70;5.10;;;;;;;19.69;51.15;100086.73;114886;1203;60101;-84
2021/11/02 08:56:10;;;;;;;6.50;4.90;;;;;;;19.70;51.12;100094.52;114886;1203;60072;-83
2021/11/02 08:58:51;;;;;;;6.40;4.80;;;;;;;19.73;51.20;100096.66;114925;1203;73364;-84
2021/11/02 09:01:40;;;;;;;;;;;;;;;;;;;;;
2021/11/02 09:04:31;;;;;;;7.50;5.00;;;;;;;19.75;51.19;100091.65;115002;1202;60467;-84
2021/11/02 09:07:58;;;;;;;9.20;5.00;;;;;;;19.76;51.10;100089.80;114897;1203;58124;-84
2021/11/02 09:11:08;;;;;;;7.40;4.80;;;;;;;19.77;51.08;100083.86;114626;1206;70918;-84
2021/11/02 09:13:52;;;;;;;;;;;;;;;;;;;;;
2021/11/02 09:16:19;;;;;;;6.30;4.60;;;;;;;19.77;51.08;100071.33;114760;1205;59713;-85
2021/11/02 09:18:53;;;;;;;7.40;4.90;;;;;;;19.80;51.09;100063.11;114625;1206;60887;-84
2021/11/02 09:21:34;;;;;;;6.60;4.90;;;;;;;19.82;51.00;100063.86;114632;1205;73193;-85
2021/11/02 09:24:17;;;;;;;6.30;4.70;;;;;;;19.82;51.06;100061.88;114623;1206;73580;-85
2021/11/02 09:27:03;;;;;;;7.00;5.20;;;;;;;19.83;50.93;100058.61;114668;1201;59679;-85
2021/11/02 09:29:29;;;;;;;6.50;5.00;;;;;;;19.83;50.96;100051.41;115080;1201;59999;-84
2021/11/02 09:31:58;;;;;;;6.70;4.90;;;;;;;19.84;51.09;100048.67;115159;1201;58014;-84
2021/11/02 09:34:24;;;;;;;8.10;5.00;;;;;;;19.85;50.99;100046.84;115156;1201;73441;-84
2021/11/02 09:37:03;;;;;;;7.00;5.10;;;;;;;19.85;50.92;100048.22;114978;1201;58014;-84
2021/11/02 09:39:30;;;;;;;;;;;;;;;19.86;51.06;100045.13;115005;1202;60738;-84
2021/11/02 09:42:55;;;;;;;6.70;4.90;;;;;;;19.84;51.05;100045.45;115151;1201;72106;-85
2021/11/02 09:45:47;;;;;;;6.80;5.20;;;;;;;19.86;50.89;100045.34;115004;1201;73695;-85
2021/11/02 09:48:54;;;;;;;;;;;;;;;;;;;;;
2021/11/02 09:52:10;;;;;;;6.20;4.70;;;;;;;19.87;51.07;100043.30;115137;1201;60106;-84
2021/11/02 09:55:26;;;;;;;6.50;4.90;;;;;;;19.87;51.05;100039.91;114666;1205;73812;-85
2021/11/02 09:58:23;;;;;;;7.00;4.90;;;;;;;19.87;51.03;100045.06;114792;1205;73548;-84
2021/11/02 10:01:54;;;;;;;6.00;4.70;;;;;;;19.88;51.07;100047.68;114823;1204;60098;-85
2021/11/02 10:05:14;;;;;;;7.40;4.50;;;;;;;19.88;50.96;100046.40;114436;1209;60778;-84
2021/11/02 10:08:40;;;;;;;;;;;;;;;;;;;;;
2021/11/02 10:11:58;;;;;;;7.20;5.00;;;;;;;19.91;50.97;100047.11;114229;1214;73544;-85
2021/11/02 10:17:54;;;;;;;6.30;4.70;;;;;;;19.91;51.03;100030.05;115309;1198;60262;-84
2021/11/02 10:20:42;;;;;;;;;;;;;;;;;;;;;
2021/11/02 10:23:58;;;;;;;;;;;;;;;;;;;;;
2021/11/02 10:27:39;;;;;;;6.60;4.60;;;;;;;19.89;50.94;100009.74;115144;1201;58870;-84
2021/11/02 10:31:14;;;;;;;6.80;5.00;;;;;;;19.86;51.03;100001.73;115157;1200;59921;-85
2021/11/02 10:34:28;;;;;;;;;;;;;;;;;;;;;
2021/11/02 10:37:51;;;;;;;6.90;5.60;;;;;;;19.82;50.90;99996.13;114536;1207;73636;-85
2021/11/02 10:40:40;;;;;;;6.70;4.80;;;;;;;19.80;50.98;99997.52;114602;1207;60130;-86
2021/11/02 10:43:37;;;;;;;7.40;4.90;;;;;;;19.80;51.00;100001.69;114585;1208;60073;-85
2021/11/02 10:46:20;;;;;;;6.50;5.00;;;;;;;19.77;51.00;100003.86;114316;1211;72149;-86
2021/11/02 10:48:59;;;;;;;6.50;5.20;;;;;;;19.75;51.03;100004.86;114426;1211;73990;-85
2021/11/02 10:51:35;;;;;;;6.50;4.80;;;;;;;19.74;51.08;100011.95;114325;1211;60058;-85
2021/11/02 10:54:47;;;;;;;6.80;5.30;;;;;;;19.72;51.07;100008.16;114275;1211;58949;-85
2021/11/02 10:57:33;;;;;;;6.40;5.30;;;;;;;19.70;51.05;100007.27;114316;1211;72378;-85
2021/11/02 11:00:28;;;;;;;6.80;5.30;;;;;;;19.68;51.07;100010.02;114318;1211;73457;-85
2021/11/02 11:03:30;;;;;;;7.80;5.30;;;;;;;19.66;51.13;100008.67;114348;1211;60197;-85
2021/11/02 11:06:14;;;;;;;6.70;5.30;;;;;;;19.64;51.16;100010.41;114358;1211;61035;-85
2021/11/02 11:08:47;;;;;;;6.30;4.90;;;;;;;19.63;51.15;100013.36;114304;1212;72468;-85
2021/11/02 11:12:12;;;;;;;7.80;5.40;;;;;;;19.61;51.15;100012.75;114387;1209;72439;-86
2021/11/02 11:15:35;;;;;;;;;;;;;;;;;;;;;
2021/11/02 11:18:23;;;;;;;6.80;5.30;;;;;;;19.55;51.17;100018.37;114629;1205;61138;-84
2021/11/02 11:21:11;;;;;;;6.30;5.00;;;;;;;19.55;51.18;100015.90;114730;1205;72864;-84
2021/11/02 11:24:04;;;;;;;;;;;;;;;;;;;;;
2021/11/02 11:26:36;;;;;;;;;;;;;;;19.52;51.18;100007.77;115229;1201;60779;-84
2021/11/02 11:29:11;;;;;;;7.30;5.30;;;;;;;19.48;51.29;100004.84;115179;1201;58272;-84
2021/11/02 11:32:01;;;;;;;;;;;;;;;;;;;;;
2021/11/02 11:34:33;;;;;;;7.30;5.20;;;;;;;19.46;51.29;99988.21;115182;1201;74074;-85
2021/11/02 11:37:33;;;;;;;7.20;5.40;;;;;;;19.45;51.43;99984.55;115177;1201;58264;-84
2021/11/02 11:40:26;;;;;;;7.50;6.00;;;;;;;19.44;51.38;99987.30;115058;1202;60079;-85
2021/11/02 11:43:38;;;;;;;8.90;5.50;;;;;;;19.42;51.38;99989.02;115115;1199;71246;-84
2021/11/02 11:47:09;;;;;;;;;;;;;;;;;;;;;
2021/11/02 11:54:13;;;;;;;;;;;;;;;;;;;;;
2021/11/02 11:57:46;;;;;;;;;;;;;;;;;;;;;
2021/11/02 12:01:23;;;;;;;;;;;;;;;;;;;;;
2021/11/02 12:05:09;;;;;;;;;;;;;;;;;;;;;
2021/11/02 12:09:31;;;;;;;8.70;6.30;;;;;;;19.33;51.37;99998.13;114010;1215;59424;-85
2021/11/02 12:12:31;;;;;;;7.90;6.20;;;;;;;19.32;51.37;99993.38;113355;1222;72472;-85
2021/11/02 12:15:59;;;;;;;;;;;;;;;;;;;;;
2021/11/02 12:19:05;;;;;;;;;;;;;;;;;;;;;
2021/11/02 12:22:48;;;;;;;8.30;6.10;;;;;;;19.29;51.44;99998.39;113160;1224;60060;-84
2021/11/02 12:25:59;;;;;;;7.60;6.30;;;;;;;19.29;51.39;99991.12;113253;1224;72834;-85
2021/11/02 12:28:46;;;;;;;7.20;6.00;;;;;;;19.28;51.30;99988.89;114201;1198;72486;-84
2021/11/02 12:31:38;;;;;;;7.60;6.00;;;;;;;19.28;51.41;99985.69;115190;1198;58908;-84
2021/11/02 12:34:38;;;;;;;8.90;6.30;;;;;;;19.27;51.26;99995.71;115495;1198;58704;-84
2021/11/02 12:38:27;;;;;;;;;;;;;;;;;;;;;
2021/11/02 12:42:20;;;;;;;;;;;;;;;;;;;;;
2021/11/02 12:45:11;;;;;;;8.60;6.20;;;;;;;19.24;51.50;99979.51;114403;1211;60034;-84
2021/11/02 12:47:38;;;;;;;8.30;6.70;;;;;;;19.25;51.41;99981.59;114403;1211;59874;-84
2021/11/02 12:50:37;;;;;;;7.90;6.30;;;;;;;19.25;51.28;99981.96;114394;1210;72610;-84
2021/11/02 12:53:38;;;;;;;7.90;6.40;;;;;;;19.25;51.40;99979.31;114410;1211;73632;-84
2021/11/02 12:56:49;;;;;;;7.50;6.00;;;;;;;19.24;51.30;99981.87;114406;1203;59903;-85
2021/11/02 13:00:15;;;;;;;;;;;;;;;;;;;;;
2021/11/02 13:04:30;;;;;;;8.50;6.70;;;;;;;19.22;51.38;99968.81;114232;1212;71277;-84
2021/11/02 13:06:53;;;;;;;8.00;6.80;;;;;;;19.22;51.28;99967.41;113632;1218;72596;-85
2021/11/02 13:21:10;;;;;;;;;;;;;;;;;;;;;
2021/11/02 13:24:36;;;;;;;7.70;6.50;;;;;;;19.19;51.49;99939.40;115196;1201;60126;-84
2021/11/02 13:27:52;;;;;;;8.10;6.30;;;;;;;19.19;51.41;99932.95;115190;1201;60228;-85
2021/11/02 13:31:24;;;;;;;8.20;6.70;;;;;;;19.20;51.24;99927.79;115173;1201;72265;-85
2021/11/02 13:34:25;;;;;;;;;;;;;;;;;;;;;
2021/11/02 13:37:27;;;;;;;9.80;7.00;;;;;;;19.19;51.35;99921.04;114799;1205;60096;-85
2021/11/02 13:53:34;;;;;;;9.10;6.80;;;;;;;19.19;51.46;99916.44;114503;1197;59449;31
2021/11/02 13:56:01;;;;;;;7.90;6.40;;;;;;;19.19;51.42;99915.31;115281;1199;72030;-84
2021/11/02 13:58:59;;;;;;;11.00;7.20;;;;;;;19.19;51.54;99916.98;115098;1199;73346;-84
2021/11/02 14:02:40;;;;;;;8.40;7.30;;;;;;;19.19;51.50;99914.81;115209;1200;58958;-84
2021/11/02 14:05:50;;;;;;;9.40;7.30;;;;;;;19.17;51.50;99914.93;114587;1206;59948;-85
2021/11/02 14:08:34;;;;;;;8.50;7.10;;;;;;;19.18;51.63;99911.69;114592;1207;73268;-84
2021/11/02 14:11:52;;;;;;;;;;;;;;;;;;;;;
2021/11/02 14:14:34;;;;;;;8.50;7.20;;;;;;;19.18;51.61;99912.23;114419;1210;60236;-85
2021/11/02 14:17:24;;;;;;;10.10;7.30;;;;;;;19.18;51.66;99905.10;114452;1209;60137;-84
2021/11/02 14:20:36;;;;;;;9.40;6.80;;;;;;;19.18;51.69;99904.02;114440;1209;71021;-84
2021/11/02 14:23:14;;;;;;;8.60;7.20;;;;;;;19.17;51.65;99904.23;114486;1209;73444;-84
2021/11/02 14:26:05;;;;;;;10.60;8.30;;;;;;;19.18;51.61;99899.73;114468;1209;59886;-84
2021/11/02 14:28:57;;;;;;;11.70;8.80;;;;;;;19.17;51.66;99898.34;114479;1209;59127;-85
2021/11/02 14:32:02;;;;;;;9.80;8.10;;;;;;;19.18;51.60;99895.61;114472;1209;72569;-84
2021/11/02 14:35:08;;;;;;;;;;;;;;;;;;;;;
2021/11/02 14:37:49;;;;;;;9.40;7.80;;;;;;;19.17;51.55;99903.16;114312;1212;61215;-84
2021/11/02 14:40:27;;;;;;;10.10;8.20;;;;;;;19.18;51.55;99906.15;114310;1211;60170;-84
2021/11/02 14:43:33;;;;;;;12.00;8.10;;;;;;;19.18;51.63;99911.00;114615;1206;72341;-84
2021/11/02 14:46:32;;;;;;;10.60;8.30;;;;;;;19.17;51.54;99909.42;114459;1210;72352;-84
2021/11/02 14:49:53;;;;;;;10.70;8.10;;;;;;;19.17;51.56;99916.36;114462;1210;59934;-84
2021/11/02 14:52:35;;;;;;;10.60;8.70;;;;;;;19.17;51.59;99913.33;114539;1208;61031;-84
2021/11/02 14:55:09;;;;;;;9.70;7.90;;;;;;;19.17;51.59;99917.42;114590;1208;72568;-85
2021/11/02 14:58:24;;;;;;;8.70;7.80;;;;;;;19.17;51.57;99921.89;114577;1207;74367;-84
2021/11/02 15:01:16;;;;;;;;;;;;;;;;;;;;;
2021/11/02 15:04:26;;;;;;;9.90;7.60;;;;;;;19.17;51.57;99939.96;114610;1207;60363;-84
2021/11/02 15:07:32;;;;;;;9.60;7.70;;;;;;;19.17;51.63;99949.93;114621;1207;72325;-84
2021/11/02 15:11:04;;;;;;;;;;;;;;;;;;;;;
2021/11/02 15:14:30;;;;;;;9.20;8.20;;;;;;;19.16;51.68;99945.93;114628;1206;59918;-85
2021/11/02 15:17:24;;;;;;;9.40;7.60;;;;;;;19.16;51.70;99941.45;114698;1206;61801;-85
2021/11/02 16:36:29;;;;;;;9.10;7.70;;;;;;;19.08;51.84;99975.03;114445;1196;58962;31
2021/11/02 16:39:57;;;;;;;10.20;8.30;;;;;;;19.08;51.87;99964.84;115253;1199;59962;-86
2021/11/02 16:43:06;;;;;;;9.90;8.20;;;;;;;19.08;51.81;99956.52;115213;1199;72357;-86
2021/11/02 16:46:30;;;;;;;;;;;;;;;;;;;;;
2021/11/02 16:49:53;;;;;;;9.60;7.80;;;;;;;19.08;51.97;99977.39;115299;1191;58705;-86
2021/11/02 16:53:06;;;;;;;10.70;8.00;;;;;;;19.08;51.90;99980.60;115353;1199;59941;-86
2021/11/02 16:55:54;;;;;;;10.60;8.50;;;;;;;19.07;51.90;99987.20;115304;1199;73585;-86
2021/11/02 16:58:54;;;;;;;10.00;8.10;;;;;;;19.08;52.11;99982.71;115232;1200;74537;-86
2021/11/02 17:01:57;;;;;;;;;;;;;;;;;;;;;
2021/11/02 17:04:43;;;;;;;10.50;8.30;;;;;;;19.08;51.95;100002.13;115313;1199;61312;-87
2021/11/02 17:07:35;;;;;;;;;;;;;;;;;;;;;
2021/11/02 17:10:55;;;;;;;;;;;;;;;;;;;;;
2021/11/02 17:13:58;;;;;;;11.10;8.60;;;;;;;19.08;51.95;100001.64;115343;1200;60999;-86
2021/11/02 17:17:17;;;;;;;;;;;;;;;;;;;;;
2021/11/02 17:20:20;;;;;;;13.10;8.30;;;;;;;19.08;52.08;100006.98;115183;1200;72130;-86
2021/11/02 17:23:10;;;;;;;10.00;8.10;;;;;;;19.08;51.94;100001.44;115261;1200;73729;-86
2021/11/02 17:26:15;;;;;;;12.10;8.50;;;;;;;19.08;52.10;100001.80;115253;1201;60030;-86
2021/11/02 17:29:05;;;;;;;10.70;8.40;;;;;;;19.08;52.01;100009.83;115265;1201;59960;-86
2021/11/02 17:31:53;;;;;;;11.40;9.40;;;;;;;19.08;51.90;100013.58;114934;1201;72402;-87
2021/11/02 17:34:39;;;;;;;;;;;;;;;;;;;;;
2021/11/02 17:37:11;;;;;;;10.80;8.70;;;;;;;19.08;52.08;100005.71;115215;1201;60022;-86
2021/11/02 17:42:52;;;;;;;11.20;8.80;;;;;;;19.08;52.15;100021.73;114846;1203;73605;-86
2021/11/02 17:45:38;;;;;;;12.20;8.90;;;;;;;19.08;52.09;100031.06;114789;1204;73523;-86
2021/11/02 17:48:43;;;;;;;11.00;9.10;;;;;;;19.07;52.23;100027.34;114497;1209;58868;-86
2021/11/02 17:51:47;;;;;;;11.00;8.90;;;;;;;19.08;52.16;100035.50;114523;1208;60260;-86
2021/11/02 17:55:15;;;;;;;11.70;9.20;;;;;;;19.07;52.12;100039.84;114441;1209;73411;-86
2021/11/02 18:10:46;;;;;;;11.90;9.20;;;;;;;19.05;52.15;100058.17;114766;1198;71876;-84
2021/11/02 18:13:53;;;;;;;11.10;8.80;;;;;;;19.05;52.14;100071.39;115216;1200;57329;-86
2021/11/02 18:16:34;;;;;;;12.50;10.20;;;;;;;19.05;52.15;100069.06;115178;1199;58760;-86
2021/11/02 18:19:19;;;;;;;12.80;10.00;;;;;;;19.05;52.13;100065.13;115241;1199;71935;-87
2021/11/02 18:22:28;;;;;;;12.60;9.90;;;;;;;19.06;52.15;100069.72;115254;1200;73707;-86
2021/11/02 18:25:24;;;;;;;;;;;;;;;;;;;;;
2021/11/02 18:31:51;;;;;;;;;;;;;;;;;;;;;
2021/11/02 18:34:24;;;;;;;13.80;10.50;;;;;;;19.05;52.14;100090.31;114806;1205;73535;-86
2021/11/02 18:37:51;;;;;;;14.70;11.00;;;;;;;19.05;52.09;100087.83;114828;1205;60225;-86
2021/11/02 18:40:42;;;;;;;11.80;9.80;;;;;;;19.05;52.16;100081.77;114813;1204;59427;-87
2021/11/02 18:44:14;;;;;;;;;;;;;;;;;;;;;
2021/11/02 18:47:01;;;;;;;13.40;10.60;;;;;;;19.04;52.30;100087.53;114832;1204;73681;-86
2021/11/02 18:49:37;;;;;;;13.70;10.20;;;;;;;19.05;52.14;100089.42;114709;1204;61146;-87
2021/11/02 18:52:22;;;;;;;13.50;10.00;;;;;;;19.05;52.14;100079.44;114863;1204;61077;-86
2021/11/02 18:54:51;;;;;;;11.60;10.00;;;;;;;19.05;52.15;100068.18;114800;1204;72147;-86
2021/11/02 18:57:55;;;;;;;;;;;;;;;;;;;;;
2021/11/02 19:00:42;;;;;;;13.70;9.80;;;;;;;19.04;52.20;100074.48;114803;1205;58559;-86
2021/11/02 19:03:18;;;;;;;12.10;9.80;;;;;;;19.05;52.22;100072.63;114680;1205;58342;-86
2021/11/02 19:06:27;;;;;;;13.00;10.50;;;;;;;19.04;52.21;100067.52;115000;1202;73399;-86
2021/11/02 19:09:43;;;;;;;;;;;;;;;;;;;;;
2021/11/02 19:12:51;;;;;;;;;;;;;;;;;;;;;
2021/11/02 19:15:59;;;;;;;13.00;10.90;;;;;;;19.04;52.12;100080.89;114967;1203;59778;-86
2021/11/02 19:18:28;;;;;;;14.10;10.80;;;;;;;19.04;52.21;100094.13;114928;1203;73365;-86
2021/11/02 19:21:17;;;;;;;;;;;;;;;;;;;;;
2021/11/02 19:23:53;;;;;;;12.00;10.10;;;;;;;19.04;52.33;100101.79;114844;1203;59870;-86
2021/11/02 19:26:51;;;;;;;13.20;10.30;;;;;;;19.05;52.29;100110.27;114875;1203;59960;-86
2021/11/02 19:29:40;;;;;;;13.40;10.20;;;;;;;19.04;52.25;100123.52;114851;1203;71634;-86
2021/11/02 19:32:43;;;;;;;15.10;11.30;;;;;;;19.05;52.35;100123.85;114922;1202;71919;-86
2021/11/02 19:35:09;;;;;;;13.20;10.50;;;;;;;19.04;52.23;100133.34;114825;1203;60639;-87
2021/11/02 19:37:45;;;;;;;13.10;10.40;;;;;;;19.04;52.29;100132.60;114833;1203;58056;-86
2021/11/02 19:40:50;;;;;;;13.90;10.80;;;;;;;19.04;52.29;100132.77;114938;1203;72178;-86
2021/11/02 19:43:39;;;;;;;13.40;10.80;;;;;;;19.04;52.26;100133.51;115029;1202;74463;-87
2021/11/02 19:46:57;;;;;;;13.00;10.10;;;;;;;19.04;52.35;100143.16;114963;1203;58712;-86
2021/11/02 19:50:03;;;;;;;12.90;10.20;;;;;;;19.04;52.32;100143.71;114933;1202;60970;-87
2021/11/02 19:52:50;;;;;;;12.90;10.70;;;;;;;19.04;52.40;100142.48;114802;1204;71253;-86
2021/11/02 19:55:37;;;;;;;14.00;11.00;;;;;;;19.03;52.34;100143.02;114816;1203;73393;-86
2021/11/02 19:58:15;;;;;;;14.00;11.20;;;;;;;19.04;52.35;100142.27;114875;1203;60878;-86
2021/11/02 20:00:49;;;;;;;15.80;11.40;;;;;;;19.04;52.11;100152.30;114842;1203;60328;-87
2021/11/02 20:03:17;;;;;;;14.70;11.50;;;;;;;19.04;52.33;100146.19;114840;1203;73374;-86
2021/11/02 20:05:46;;;;;;;12.70;10.30;;;;;;;19.04;52.22;100145.30;114844;1203;73568;-86
2021/11/02 20:08:39;;;;;;;12.30;10.50;;;;;;;19.04;52.26;100143.33;114971;1203;60422;-86
2021/11/02 20:11:10;;;;;;;16.50;11.50;;;;;;;19.04;52.24;100143.70;114942;1203;58945;-87
2021/11/02 20:13:38;;;;;;;14.50;11.10;;;;;;;19.04;52.40;100150.98;114896;1203;73171;-86
2021/11/02 20:16:38;;;;;;;13.40;11.20;;;;;;;19.04;52.41;100152.80;114839;1203;74579;-87
2021/11/02 20:20:03;;;;;;;13.40;10.60;;;;;;;19.03;52.35;100148.20;114846;1203;60510;-86
2021/11/02 20:22:29;;;;;;;14.10;10.90;;;;;;;19.03;52.33;100146.65;114816;1203;58883;-86
2021/11/02 20:24:59;;;;;;;14.00;10.70;;;;;;;19.03;52.26;100146.27;114918;1203;73138;-86
2021/11/02 20:27:44;;;;;;;14.10;10.50;;;;;;;19.03;52.32;100147.85;114860;1203;74547;-86
2021/11/02 20:30:43;;;;;;;13.60;10.30;;;;;;;19.03;52.31;100151.06;114881;1203;58768;-86
2021/11/02 20:33:18;;;;;;;13.70;10.90;;;;;;;19.03;52.36;100167.46;114970;1203;60081;-86
2021/11/02 20:37:02;;;;;;;12.60;11.10;;;;;;;19.03;52.39;100168.55;114872;1203;58026;-86
2021/11/02 20:43:01;;;;;;;14.60;11.40;;;;;;;19.02;52.37;100175.27;114693;1197;59872;-84
2021/11/02 20:45:50;;;;;;;;;;;;;;;;;;;;;
2021/11/02 20:48:53;;;;;;;;;;;;;;;;;;;;;
2021/11/02 20:51:32;;;;;;;14.20;11.10;;;;;;;19.02;52.44;100174.55;115180;1202;72989;-85
2021/11/02 20:54:30;;;;;;;13.60;11.30;;;;;;;19.02;52.30;100174.89;114951;1203;59775;-84
2021/11/02 20:56:59;;;;;;;14.30;10.80;;;;;;;19.01;52.46;100170.11;115139;1202;60257;-85
2021/11/02 20:59:29;;;;;;;14.70;11.10;;;;;;;19.02;52.41;100167.58;114899;1203;72128;-85
2021/11/02 21:02:04;;;;;;;13.80;11.30;;;;;;;19.02;52.31;100161.89;114819;1203;58549;-85
2021/11/02 21:04:43;;;;;;;14.40;11.40;;;;;;;19.01;52.51;100161.55;114940;1203;60999;-85
2021/11/02 21:07:58;;;;;;;14.20;11.00;;;;;;;19.01;52.36;100162.27;114864;1203;58945;-85
2021/11/02 21:10:52;;;;;;;13.70;10.70;;;;;;;19.01;52.43;100159.60;115141;1202;72937;-84
2021/11/02 21:14:46;;;;;;;13.70;11.10;;;;;;;19.00;52.30;100158.20;115194;1202;73250;-84
2021/11/02 21:17:58;;;;;;;;;;;;;;;;;;;;;
2021/11/02 21:21:12;;;;;;;14.30;11.20;;;;;;;19.00;52.40;100160.25;114570;1208;59142;-84
2021/11/02 21:24:29;;;;;;;13.30;11.00;;;;;;;19.00;52.31;100159.88;114641;1206;71702;-85
2021/11/02 21:27:06;;;;;;;;;;;;;;;;;;;;;
2021/11/02 21:30:09;;;;;;;14.70;11.50;;;;;;;18.99;52.33;100168.45;114596;1206;59821;-85
2021/11/02 21:33:18;;;;;;;13.20;10.80;;;;;;;18.99;52.23;100170.26;114664;1206;60226;-84
2021/11/02 21:36:45;;;;;;;14.00;11.50;;;;;;;19.00;52.36;100181.63;114623;1206;72457;-85
2021/11/02 21:39:28;;;;;;;13.30;10.60;;;;;;;18.99;52.34;100185.30;114639;1206;71739;-85
2021/11/02 21:42:16;;;;;;;14.80;12.00;;;;;;;19.00;52.35;100192.18;114648;1206;60665;-84
2021/11/02 21:44:54;;;;;;;14.40;10.80;;;;;;;19.00;52.32;100203.95;114661;1206;59958;-85
2021/11/02 21:47:52;;;;;;;;;;;;;;;;;;;;;
2021/11/02 21:50:37;;;;;;;11.60;10.10;;;;;;;18.97;52.37;100215.54;114628;1206;74327;-86
2021/11/02 21:54:08;;;;;;;;;;;;;;;;;;;;;
2021/11/02 21:57:22;;;;;;;;;;;;;;;;;;;;;
2021/11/02 22:00:06;;;;;;;13.40;11.30;;;;;;;18.97;52.48;100220.34;115250;1201;72822;-86
2021/11/02 22:03:26;;;;;;;;;;;;;;;;;;;;;
2021/11/02 22:06:35;;;;;;;;;;;;;;;;;;;;;
2021/11/02 22:09:09;;;;;;;13.20;11.20;;;;;;;18.98;52.39;100222.77;114732;1205;61337;-86
2021/11/02 22:12:04;;;;;;;12.60;10.70;;;;;;;18.97;52.37;100224.59;114466;1209;71075;-86